sensor_id;sensor_type;location;lat;lon;timestamp;pressure;altitude;pressure_sealevel;temperature;humidity
80837;BME280;70251;60.008;30.404;2023-08-12T00:00:19;101431.38;;;22.06;57.45
80837;BME280;70251;60.008;30.404;2023-08-12T00:02:45;101426.78;;;22.06;57.58
80837;BME280;70251;60.008;30.404;2023-08-12T00:05:12;101416.94;;;22.05;57.92
80837;BME280;70251;60.008;30.404;2023-08-12T00:07:39;101424.06;;;22.06;57.99
80837;BME280;70251;60.008;30.404;2023-08-12T00:10:09;101425.75;;;22.07;57.46
80837;BME280;70251;60.008;30.404;2023-08-12T00:12:36;101432.41;;;22.05;57.83
80837;BME280;70251;60.008;30.404;2023-08-12T00:15:03;101430.34;;;22.07;57.76
80837;BME280;70251;60.008;30.404;2023-08-12T00:17:31;101430.75;;;22.04;57.50
80837;BME280;70251;60.008;30.404;2023-08-12T00:19:56;101425.31;;;22.04;57.70
80837;BME280;70251;60.008;30.404;2023-08-12T00:22:22;101421.09;;;22.01;57.66
80837;BME280;70251;60.008;30.404;2023-08-12T00:24:49;101425.09;;;22.05;57.96
80837;BME280;70251;60.008;30.404;2023-08-12T00:27:14;101420.31;;;22.07;57.64
80837;BME280;70251;60.008;30.404;2023-08-12T00:29:40;101422.19;;;22.07;57.46
80837;BME280;70251;60.008;30.404;2023-08-12T00:32:06;101409.66;;;22.06;57.91
80837;BME280;70251;60.008;30.404;2023-08-12T00:34:31;101409.66;;;22.06;57.91
80837;BME280;70251;60.008;30.404;2023-08-12T00:36:57;101409.81;;;22.04;57.48
80837;BME280;70251;60.008;30.404;2023-08-12T00:39:23;101414.59;;;22.02;57.76
80837;BME280;70251;60.008;30.404;2023-08-12T00:41:48;101415.66;;;22.01;57.40
80837;BME280;70251;60.008;30.404;2023-08-12T00:44:14;101407.22;;;21.96;57.72
80837;BME280;70251;60.008;30.404;2023-08-12T00:46:41;101404.31;;;21.98;57.76
80837;BME280;70251;60.008;30.404;2023-08-12T00:49:08;101405.72;;;21.94;57.81
80837;BME280;70251;60.008;30.404;2023-08-12T00:51:35;101412.84;;;21.95;58.26
80837;BME280;70251;60.008;30.404;2023-08-12T00:54:04;101411.34;;;21.92;58.47
80837;BME280;70251;60.008;30.404;2023-08-12T00:56:30;101417.16;;;21.89;58.55
80837;BME280;70251;60.008;30.404;2023-08-12T00:58:58;101407.34;;;21.88;58.36
80837;BME280;70251;60.008;30.404;2023-08-12T01:01:24;101412.78;;;21.88;58.57
80837;BME280;70251;60.008;30.404;2023-08-12T01:03:51;101411.06;;;21.87;58.53
80837;BME280;70251;60.008;30.404;2023-08-12T01:06:19;101425.25;;;21.83;58.38
80837;BME280;70251;60.008;30.404;2023-08-12T01:08:44;101420.53;;;21.77;58.46
80837;BME280;70251;60.008;30.404;2023-08-12T01:16:36;101413.47;;;21.61;58.49
80837;BME280;70251;60.008;30.404;2023-08-12T01:19:06;101415.13;;;21.62;58.36
80837;BME280;70251;60.008;30.404;2023-08-12T01:21:40;101411.38;;;21.63;58.71
80837;BME280;70251;60.008;30.404;2023-08-12T01:24:07;101414.66;;;21.58;58.35
80837;BME280;70251;60.008;30.404;2023-08-12T01:26:33;101413.16;;;21.56;58.55
80837;BME280;70251;60.008;30.404;2023-08-12T01:28:59;101407.09;;;21.54;58.29
80837;BME280;70251;60.008;30.404;2023-08-12T01:31:32;101410.09;;;21.59;58.92
80837;BME280;70251;60.008;30.404;2023-08-12T01:34:10;101418.88;;;21.61;58.31
80837;BME280;70251;60.008;30.404;2023-08-12T01:36:38;101408.59;;;21.56;57.93
80837;BME280;70251;60.008;30.404;2023-08-12T01:39:06;101408.09;;;21.53;58.29
80837;BME280;70251;60.008;30.404;2023-08-12T01:41:34;101399.50;;;21.49;57.94
80837;BME280;70251;60.008;30.404;2023-08-12T01:44:02;101393.31;;;21.41;57.83
80837;BME280;70251;60.008;30.404;2023-08-12T01:46:28;101394.94;;;21.35;58.23
80837;BME280;70251;60.008;30.404;2023-08-12T01:48:53;101387.81;;;21.34;58.43
80837;BME280;70251;60.008;30.404;2023-08-12T01:51:19;101388.19;;;21.31;58.14
80837;BME280;70251;60.008;30.404;2023-08-12T01:53:44;101385.28;;;21.33;57.89
80837;BME280;70251;60.008;30.404;2023-08-12T01:56:10;101389.97;;;21.39;57.83
80837;BME280;70251;60.008;30.404;2023-08-12T01:58:36;101385.84;;;21.43;57.61
80837;BME280;70251;60.008;30.404;2023-08-12T02:01:01;101385.28;;;21.47;57.23
80837;BME280;70251;60.008;30.404;2023-08-12T02:03:26;101384.41;;;21.47;57.56
80837;BME280;70251;60.008;30.404;2023-08-12T02:05:52;101380.69;;;21.48;57.06
80837;BME280;70251;60.008;30.404;2023-08-12T02:08:18;101379.06;;;21.53;56.57
80837;BME280;70251;60.008;30.404;2023-08-12T02:10:43;101377.00;;;21.55;56.70
80837;BME280;70251;60.008;30.404;2023-08-12T02:13:09;101378.72;;;21.56;56.91
80837;BME280;70251;60.008;30.404;2023-08-12T02:15:34;101369.06;;;21.54;56.45
80837;BME280;70251;60.008;30.404;2023-08-12T02:18:00;101366.91;;;21.49;56.20
80837;BME280;70251;60.008;30.404;2023-08-12T02:20:26;101379.38;;;21.44;56.39
80837;BME280;70251;60.008;30.404;2023-08-12T02:22:51;101376.03;;;21.42;56.20
80837;BME280;70251;60.008;30.404;2023-08-12T02:25:17;101372.25;;;21.43;56.23
80837;BME280;70251;60.008;30.404;2023-08-12T02:27:42;101387.13;;;21.47;56.26
80837;BME280;70251;60.008;30.404;2023-08-12T02:30:08;101377.69;;;21.43;56.41
80837;BME280;70251;60.008;30.404;2023-08-12T02:32:34;101382.75;;;21.46;56.19
80837;BME280;70251;60.008;30.404;2023-08-12T02:34:59;101388.84;;;21.48;56.55
80837;BME280;70251;60.008;30.404;2023-08-12T02:37:25;101391.56;;;21.48;56.20
80837;BME280;70251;60.008;30.404;2023-08-12T02:39:50;101384.41;;;21.47;56.42
80837;BME280;70251;60.008;30.404;2023-08-12T02:42:16;101375.06;;;21.49;56.62
80837;BME280;70251;60.008;30.404;2023-08-12T02:44:42;101368.63;;;21.50;56.61
80837;BME280;70251;60.008;30.404;2023-08-12T02:47:07;101376.19;;;21.55;56.56
80837;BME280;70251;60.008;30.404;2023-08-12T02:49:33;101384.50;;;21.53;56.19
80837;BME280;70251;60.008;30.404;2023-08-12T02:51:58;101377.41;;;21.52;56.21
80837;BME280;70251;60.008;30.404;2023-08-12T02:54:24;101389.50;;;21.50;55.85
80837;BME280;70251;60.008;30.404;2023-08-12T02:56:50;101385.28;;;21.47;55.91
80837;BME280;70251;60.008;30.404;2023-08-12T02:59:15;101393.22;;;21.49;56.07
80837;BME280;70251;60.008;30.404;2023-08-12T03:01:44;101399.31;;;21.51;56.55
80837;BME280;70251;60.008;30.404;2023-08-12T03:04:10;101386.31;;;21.46;56.68
80837;BME280;70251;60.008;30.404;2023-08-12T03:06:36;101398.56;;;21.42;56.48
80837;BME280;70251;60.008;30.404;2023-08-12T03:09:02;101402.31;;;21.41;56.73
80837;BME280;70251;60.008;30.404;2023-08-12T03:11:27;101398.94;;;21.39;56.58
80837;BME280;70251;60.008;30.404;2023-08-12T03:13:53;101405.22;;;21.40;57.13
80837;BME280;70251;60.008;30.404;2023-08-12T03:16:18;101411.03;;;21.37;57.14
80837;BME280;70251;60.008;30.404;2023-08-12T03:18:44;101396.16;;;21.33;57.09
80837;BME280;70251;60.008;30.404;2023-08-12T03:21:10;101396.91;;;21.27;57.10
80837;BME280;70251;60.008;30.404;2023-08-12T03:23:36;101395.41;;;21.24;57.56
80837;BME280;70251;60.008;30.404;2023-08-12T03:26:02;101392.88;;;21.23;57.63
80837;BME280;70251;60.008;30.404;2023-08-12T03:28:28;101398.47;;;21.21;57.89
80837;BME280;70251;60.008;30.404;2023-08-12T03:30:53;101404.75;;;21.22;57.96
80837;BME280;70251;60.008;30.404;2023-08-12T03:33:19;101402.03;;;21.22;57.70
80837;BME280;70251;60.008;30.404;2023-08-12T03:35:46;101392.22;;;21.21;58.28
80837;BME280;70251;60.008;30.404;2023-08-12T03:38:12;101393.25;;;21.20;58.25
80837;BME280;70251;60.008;30.404;2023-08-12T03:40:39;101387.81;;;21.20;58.21
80837;BME280;70251;60.008;30.404;2023-08-12T03:43:05;101393.25;;;21.20;58.05
80837;BME280;70251;60.008;30.404;2023-08-12T03:45:30;101396.81;;;21.20;58.14
80837;BME280;70251;60.008;30.404;2023-08-12T03:47:56;101393.91;;;21.22;58.08
80837;BME280;70251;60.008;30.404;2023-08-12T03:50:21;101395.41;;;21.24;57.77
80837;BME280;70251;60.008;30.404;2023-08-12T03:52:47;101391.47;;;21.27;57.97
80837;BME280;70251;60.008;30.404;2023-08-12T03:55:12;101403.44;;;21.32;57.92
80837;BME280;70251;60.008;30.404;2023-08-12T03:57:38;101400.38;;;21.35;57.84
80837;BME280;70251;60.008;30.404;2023-08-12T04:00:04;101398.84;;;21.33;58.01
80837;BME280;70251;60.008;30.404;2023-08-12T04:02:32;101389.59;;;21.27;58.13
80837;BME280;70251;60.008;30.404;2023-08-12T04:04:58;101394.94;;;21.35;58.02
80837;BME280;70251;60.008;30.404;2023-08-12T04:07:23;101399.16;;;21.38;58.13
80837;BME280;70251;60.008;30.404;2023-08-12T04:09:49;101387.25;;;21.39;57.88
80837;BME280;70251;60.008;30.404;2023-08-12T04:12:15;101396.03;;;21.41;57.85
80837;BME280;70251;60.008;30.404;2023-08-12T04:14:40;101403.81;;;21.44;57.22
80837;BME280;70251;60.008;30.404;2023-08-12T04:17:06;101398.56;;;21.42;57.31
80837;BME280;70251;60.008;30.404;2023-08-12T04:19:31;101396.69;;;21.43;57.57
80837;BME280;70251;60.008;30.404;2023-08-12T04:21:57;101395.19;;;21.40;57.76
80837;BME280;70251;60.008;30.404;2023-08-12T04:24:23;101399.59;;;21.41;57.91
80837;BME280;70251;60.008;30.404;2023-08-12T04:26:48;101404.84;;;21.43;58.00
80837;BME280;70251;60.008;30.404;2023-08-12T04:29:14;101406.16;;;21.47;57.61
80837;BME280;70251;60.008;30.404;2023-08-12T04:31:40;101407.66;;;21.49;57.84
80837;BME280;70251;60.008;30.404;2023-08-12T04:34:06;101403.72;;;21.52;58.13
80837;BME280;70251;60.008;30.404;2023-08-12T04:36:31;101400.63;;;21.55;57.90
80837;BME280;70251;60.008;30.404;2023-08-12T04:38:57;101399.59;;;21.56;58.12
80837;BME280;70251;60.008;30.404;2023-08-12T04:41:22;101400.25;;;21.58;58.21
80837;BME280;70251;60.008;30.404;2023-08-12T04:43:49;101397.16;;;21.61;57.79
80837;BME280;70251;60.008;30.404;2023-08-12T04:46:15;101391.97;;;21.66;58.22
80837;BME280;70251;60.008;30.404;2023-08-12T04:48:40;101394.97;;;21.71;57.69
80837;BME280;70251;60.008;30.404;2023-08-12T04:51:06;101383.53;;;21.76;57.65
80837;BME280;70251;60.008;30.404;2023-08-12T04:53:32;101388.41;;;21.80;57.61
80837;BME280;70251;60.008;30.404;2023-08-12T04:55:58;101385.31;;;21.83;57.76
80837;BME280;70251;60.008;30.404;2023-08-12T04:58:23;101389.16;;;21.89;57.75
80837;BME280;70251;60.008;30.404;2023-08-12T05:00:50;101384.84;;;21.94;57.56
80837;BME280;70251;60.008;30.404;2023-08-12T05:03:17;101389.91;;;21.97;57.28
80837;BME280;70251;60.008;30.404;2023-08-12T05:05:43;101388.47;;;22.01;56.88
80837;BME280;70251;60.008;30.404;2023-08-12T05:08:08;101381.34;;;22.00;56.51
80837;BME280;70251;60.008;30.404;2023-08-12T05:10:34;101390.41;;;22.07;56.59
80837;BME280;70251;60.008;30.404;2023-08-12T05:12:59;101383.56;;;22.11;56.36
80837;BME280;70251;60.008;30.404;2023-08-12T05:15:25;101379.41;;;22.15;56.27
80837;BME280;70251;60.008;30.404;2023-08-12T05:17:51;101382.78;;;22.17;56.34
80837;BME280;70251;60.008;30.404;2023-08-12T05:20:16;101386.78;;;22.21;56.15
80837;BME280;70251;60.008;30.404;2023-08-12T05:22:42;101381.81;;;22.25;56.19
80837;BME280;70251;60.008;30.404;2023-08-12T05:25:08;101391.91;;;22.31;55.45
80837;BME280;70251;60.008;30.404;2023-08-12T05:27:33;101387.13;;;22.33;55.67
80837;BME280;70251;60.008;30.404;2023-08-12T05:29:59;101384.22;;;22.34;55.62
80837;BME280;70251;60.008;30.404;2023-08-12T05:32:24;101380.69;;;22.40;55.25
80837;BME280;70251;60.008;30.404;2023-08-12T05:34:52;101378.88;;;22.48;54.99
80837;BME280;70251;60.008;30.404;2023-08-12T05:37:20;101374.69;;;22.45;54.76
80837;BME280;70251;60.008;30.404;2023-08-12T05:39:46;101374.25;;;22.42;54.47
80837;BME280;70251;60.008;30.404;2023-08-12T05:42:11;101378.38;;;22.37;54.75
80837;BME280;70251;60.008;30.404;2023-08-12T05:44:37;101379.88;;;22.40;54.93
80837;BME280;70251;60.008;30.404;2023-08-12T05:47:02;101374.09;;;22.50;54.42
80837;BME280;70251;60.008;30.404;2023-08-12T05:49:28;101376.13;;;22.62;54.44
80837;BME280;70251;60.008;30.404;2023-08-12T05:51:53;101368.66;;;22.71;53.96
80837;BME280;70251;60.008;30.404;2023-08-12T05:54:19;101372.28;;;22.78;53.42
80837;BME280;70251;60.008;30.404;2023-08-12T05:56:45;101370.41;;;22.78;53.28
80837;BME280;70251;60.008;30.404;2023-08-12T05:59:10;101368.84;;;22.69;53.37
80837;BME280;70251;60.008;30.404;2023-08-12T06:01:36;101365.22;;;22.62;53.35
80837;BME280;70251;60.008;30.404;2023-08-12T06:04:01;101355.84;;;22.65;53.13
80837;BME280;70251;60.008;30.404;2023-08-12T06:06:27;101360.25;;;22.66;53.19
80837;BME280;70251;60.008;30.404;2023-08-12T06:08:52;101347.94;;;22.70;52.93
80837;BME280;70251;60.008;30.404;2023-08-12T06:11:20;101346.88;;;22.71;52.79
80837;BME280;70251;60.008;30.404;2023-08-12T06:13:46;101353.38;;;22.70;52.41
80837;BME280;70251;60.008;30.404;2023-08-12T06:16:11;101356.28;;;22.68;52.61
80837;BME280;70251;60.008;30.404;2023-08-12T06:18:37;101354.41;;;22.69;52.71
80837;BME280;70251;60.008;30.404;2023-08-12T06:21:02;101368.44;;;22.72;52.80
80837;BME280;70251;60.008;30.404;2023-08-12T06:23:28;101375.97;;;22.70;52.63
80837;BME280;70251;60.008;30.404;2023-08-12T06:25:55;101378.25;;;22.67;52.63
80837;BME280;70251;60.008;30.404;2023-08-12T06:28:20;101377.59;;;22.65;53.15
80837;BME280;70251;60.008;30.404;2023-08-12T06:30:46;101370.94;;;22.67;52.75
80837;BME280;70251;60.008;30.404;2023-08-12T06:33:14;101376.81;;;22.71;52.59
80837;BME280;70251;60.008;30.404;2023-08-12T06:35:40;101383.53;;;22.75;52.81
80837;BME280;70251;60.008;30.404;2023-08-12T06:38:05;101381.03;;;22.73;52.62
80837;BME280;70251;60.008;30.404;2023-08-12T06:40:31;101376.88;;;22.77;52.75
80837;BME280;70251;60.008;30.404;2023-08-12T06:42:56;101376.72;;;22.85;52.38
80837;BME280;70251;60.008;30.404;2023-08-12T06:45:22;101380.06;;;22.87;52.01
80837;BME280;70251;60.008;30.404;2023-08-12T06:47:48;101380.97;;;22.94;52.10
80837;BME280;70251;60.008;30.404;2023-08-12T06:50:13;101386.09;;;23.04;51.84
80837;BME280;70251;60.008;30.404;2023-08-12T06:52:39;101379.84;;;23.10;52.00
80837;BME280;70251;60.008;30.404;2023-08-12T06:55:05;101392.44;;;23.17;51.66
80837;BME280;70251;60.008;30.404;2023-08-12T06:57:30;101390.38;;;23.26;52.07
80837;BME280;70251;60.008;30.404;2023-08-12T06:59:56;101386.50;;;23.35;51.63
80837;BME280;70251;60.008;30.404;2023-08-12T07:02:22;101388.03;;;23.44;51.79
80837;BME280;70251;60.008;30.404;2023-08-12T07:04:47;101386.97;;;23.45;50.99
80837;BME280;70251;60.008;30.404;2023-08-12T07:07:13;101388.03;;;23.44;51.05
80837;BME280;70251;60.008;30.404;2023-08-12T07:09:39;101382.56;;;23.44;50.89
80837;BME280;70251;60.008;30.404;2023-08-12T07:12:04;101385.09;;;23.46;50.76
80837;BME280;70251;60.008;30.404;2023-08-12T07:14:30;101386.97;;;23.45;50.49
80837;BME280;70251;60.008;30.404;2023-08-12T07:16:56;101385.47;;;23.43;50.74
80837;BME280;70251;60.008;30.404;2023-08-12T07:19:22;101384.66;;;23.42;50.94
80837;BME280;70251;60.008;30.404;2023-08-12T07:21:47;101403.56;;;23.50;50.93
80837;BME280;70251;60.008;30.404;2023-08-12T07:24:13;101403.38;;;23.58;50.56
80837;BME280;70251;60.008;30.404;2023-08-12T07:26:38;101401.94;;;23.62;50.56
80837;BME280;70251;60.008;30.404;2023-08-12T07:29:04;101399.44;;;23.67;50.88
80837;BME280;70251;60.008;30.404;2023-08-12T07:31:29;101395.28;;;23.71;50.45
80837;BME280;70251;60.008;30.404;2023-08-12T07:33:55;101398.66;;;23.80;50.54
80837;BME280;70251;60.008;30.404;2023-08-12T07:36:21;101395.53;;;23.89;50.31
80837;BME280;70251;60.008;30.404;2023-08-12T07:38:46;101387.81;;;24.00;50.44
80837;BME280;70251;60.008;30.404;2023-08-12T07:41:12;101390.78;;;24.05;50.18
80837;BME280;70251;60.008;30.404;2023-08-12T07:43:37;101392.03;;;24.09;49.88
80837;BME280;70251;60.008;30.404;2023-08-12T07:46:03;101399.19;;;24.10;49.81
80837;BME280;70251;60.008;30.404;2023-08-12T07:48:29;101391.66;;;24.12;49.91
80837;BME280;70251;60.008;30.404;2023-08-12T07:50:57;101396.91;;;24.20;49.94
80837;BME280;70251;60.008;30.404;2023-08-12T07:53:22;101399.66;;;24.26;49.69
80837;BME280;70251;60.008;30.404;2023-08-12T07:55:48;101395.66;;;24.29;49.77
80837;BME280;70251;60.008;30.404;2023-08-12T07:58:14;101398.81;;;24.32;49.49
80837;BME280;70251;60.008;30.404;2023-08-12T08:00:39;101404.72;;;24.36;49.41
80837;BME280;70251;60.008;30.404;2023-08-12T08:03:05;101398.44;;;24.42;49.29
80837;BME280;70251;60.008;30.404;2023-08-12T08:05:30;101397.59;;;24.54;48.81
80837;BME280;70251;60.008;30.404;2023-08-12T08:07:56;101398.63;;;24.66;49.05
80837;BME280;70251;60.008;30.404;2023-08-12T08:10:22;101402.03;;;24.75;48.75
80837;BME280;70251;60.008;30.404;2023-08-12T08:12:47;101403.50;;;24.84;48.58
80837;BME280;70251;60.008;30.404;2023-08-12T08:15:13;101404.13;;;24.93;48.34
80837;BME280;70251;60.008;30.404;2023-08-12T08:17:39;101400.13;;;24.95;48.60
80837;BME280;70251;60.008;30.404;2023-08-12T08:20:05;101404.75;;;25.08;48.24
80837;BME280;70251;60.008;30.404;2023-08-12T08:22:31;101398.81;;;25.24;48.01
80837;BME280;70251;60.008;30.404;2023-08-12T08:24:57;101391.22;;;25.39;47.66
80837;BME280;70251;60.008;30.404;2023-08-12T08:27:22;101401.13;;;25.47;47.61
80837;BME280;70251;60.008;30.404;2023-08-12T08:29:48;101401.50;;;25.57;47.21
80837;BME280;70251;60.008;30.404;2023-08-12T08:32:14;101404.59;;;25.67;47.09
80837;BME280;70251;60.008;30.404;2023-08-12T08:34:39;101395.50;;;25.79;46.75
80837;BME280;70251;60.008;30.404;2023-08-12T08:37:05;101391.00;;;25.98;46.99
80837;BME280;70251;60.008;30.404;2023-08-12T08:39:31;101399.75;;;26.13;46.68
80837;BME280;70251;60.008;30.404;2023-08-12T08:41:58;101395.69;;;26.29;46.68
80837;BME280;70251;60.008;30.404;2023-08-12T08:44:29;101405.94;;;26.40;46.12
80837;BME280;70251;60.008;30.404;2023-08-12T08:46:58;101399.78;;;26.44;46.18
80837;BME280;70251;60.008;30.404;2023-08-12T08:49:25;101400.03;;;26.43;45.41
80837;BME280;70251;60.008;30.404;2023-08-12T08:51:52;101398.13;;;26.37;45.28
80837;BME280;70251;60.008;30.404;2023-08-12T08:54:19;101395.81;;;26.40;45.13
80837;BME280;70251;60.008;30.404;2023-08-12T08:56:46;101400.75;;;26.56;45.38
80837;BME280;70251;60.008;30.404;2023-08-12T08:59:13;101407.63;;;26.65;44.71
80837;BME280;70251;60.008;30.404;2023-08-12T09:01:39;101398.72;;;26.76;44.87
80837;BME280;70251;60.008;30.404;2023-08-12T09:04:05;101399.44;;;26.90;44.88
80837;BME280;70251;60.008;30.404;2023-08-12T09:06:32;101396.97;;;27.07;44.11
80837;BME280;70251;60.008;30.404;2023-08-12T09:09:00;101406.06;;;27.25;43.76
80837;BME280;70251;60.008;30.404;2023-08-12T09:11:26;101407.84;;;27.38;43.83
80837;BME280;70251;60.008;30.404;2023-08-12T09:13:55;101400.38;;;27.45;42.85
80837;BME280;70251;60.008;30.404;2023-08-12T09:16:21;101398.56;;;27.57;42.42
80837;BME280;70251;60.008;30.404;2023-08-12T09:18:47;101398.75;;;27.74;42.42
80837;BME280;70251;60.008;30.404;2023-08-12T09:21:12;101396.75;;;27.99;41.89
80837;BME280;70251;60.008;30.404;2023-08-12T09:23:39;101405.13;;;28.33;41.95
80837;BME280;70251;60.008;30.404;2023-08-12T09:26:13;101397.72;;;28.64;40.60
80837;BME280;70251;60.008;30.404;2023-08-12T09:28:41;101408.59;;;28.82;40.85
80837;BME280;70251;60.008;30.404;2023-08-12T09:31:07;101400.25;;;29.00;40.77
80837;BME280;70251;60.008;30.404;2023-08-12T09:33:38;101397.78;;;29.22;39.73
80837;BME280;70251;60.008;30.404;2023-08-12T09:36:04;101405.44;;;29.20;39.98
80837;BME280;70251;60.008;30.404;2023-08-12T09:38:29;101404.28;;;28.86;39.82
80837;BME280;70251;60.008;30.404;2023-08-12T09:40:56;101405.28;;;28.50;40.25
80837;BME280;70251;60.008;30.404;2023-08-12T09:43:27;101410.81;;;28.20;40.20
80837;BME280;70251;60.008;30.404;2023-08-12T09:45:56;101409.72;;;27.92;40.91
80837;BME280;70251;60.008;30.404;2023-08-12T09:48:22;101402.59;;;27.73;41.00
80837;BME280;70251;60.008;30.404;2023-08-12T09:50:49;101403.09;;;27.63;41.31
80837;BME280;70251;60.008;30.404;2023-08-12T09:53:15;101403.31;;;27.80;41.13
80837;BME280;70251;60.008;30.404;2023-08-12T09:55:42;101401.78;;;28.02;41.20
80837;BME280;70251;60.008;30.404;2023-08-12T09:58:10;101410.34;;;28.23;40.70
80837;BME280;70251;60.008;30.404;2023-08-12T10:00:40;101407.41;;;28.36;40.51
80837;BME280;70251;60.008;30.404;2023-08-12T10:03:07;101404.28;;;28.33;40.06
80837;BME280;70251;60.008;30.404;2023-08-12T10:05:33;101399.72;;;28.57;40.24
80837;BME280;70251;60.008;30.404;2023-08-12T10:07:59;101399.53;;;28.93;39.72
80837;BME280;70251;60.008;30.404;2023-08-12T10:10:30;101403.50;;;29.32;38.94
80837;BME280;70251;60.008;30.404;2023-08-12T10:12:56;101395.06;;;29.61;38.88
80837;BME280;70251;60.008;30.404;2023-08-12T10:15:21;101395.72;;;29.92;38.41
80837;BME280;70251;60.008;30.404;2023-08-12T10:17:48;101393.94;;;30.14;38.11
80837;BME280;70251;60.008;30.404;2023-08-12T10:20:20;101389.34;;;30.03;37.74
80837;BME280;70251;60.008;30.404;2023-08-12T10:22:47;101390.75;;;29.65;38.02
80837;BME280;70251;60.008;30.404;2023-08-12T10:25:14;101397.03;;;29.26;37.91
80837;BME280;70251;60.008;30.404;2023-08-12T10:27:41;101390.69;;;29.37;38.23
80837;BME280;70251;60.008;30.404;2023-08-12T10:30:07;101381.44;;;29.66;37.84
80837;BME280;70251;60.008;30.404;2023-08-12T10:32:34;101385.72;;;29.74;37.56
80837;BME280;70251;60.008;30.404;2023-08-12T10:35:00;101389.09;;;29.53;37.64
80837;BME280;70251;60.008;30.404;2023-08-12T10:37:26;101382.00;;;29.17;38.19
80837;BME280;70251;60.008;30.404;2023-08-12T10:39:55;101387.81;;;28.86;38.14
80837;BME280;70251;60.008;30.404;2023-08-12T10:42:46;101386.72;;;28.64;38.56
80837;BME280;70251;60.008;30.404;2023-08-12T10:45:14;101385.22;;;28.38;38.79
80837;BME280;70251;60.008;30.404;2023-08-12T10:47:47;101384.50;;;28.42;38.83
80837;BME280;70251;60.008;30.404;2023-08-12T10:50:20;101392.72;;;28.95;38.25
80837;BME280;70251;60.008;30.404;2023-08-12T10:52:47;101381.63;;;29.37;37.97
80837;BME280;70251;60.008;30.404;2023-08-12T10:55:27;101388.53;;;29.39;37.57
80837;BME280;70251;60.008;30.404;2023-08-12T10:57:54;101380.84;;;29.64;37.51
80837;BME280;70251;60.008;30.404;2023-08-12T11:00:24;101377.13;;;29.99;36.98
80837;BME280;70251;60.008;30.404;2023-08-12T11:02:51;101378.84;;;30.16;36.80
80837;BME280;70251;60.008;30.404;2023-08-12T11:05:18;101379.38;;;30.30;36.53
80837;BME280;70251;60.008;30.404;2023-08-12T11:08:00;101381.28;;;30.57;36.21
80837;BME280;70251;60.008;30.404;2023-08-12T11:10:33;101371.59;;;30.55;35.85
80837;BME280;70251;60.008;30.404;2023-08-12T11:13:00;101381.34;;;30.18;36.61
80837;BME280;70251;60.008;30.404;2023-08-12T11:15:37;101376.59;;;29.85;36.53
80837;BME280;70251;60.008;30.404;2023-08-12T11:18:08;101374.84;;;29.79;36.77
80837;BME280;70251;60.008;30.404;2023-08-12T11:20:34;101370.66;;;30.05;37.11
80837;BME280;70251;60.008;30.404;2023-08-12T11:23:01;101378.13;;;29.92;37.15
80837;BME280;70251;60.008;30.404;2023-08-12T11:25:31;101377.91;;;29.71;37.10
80837;BME280;70251;60.008;30.404;2023-08-12T11:27:57;101377.75;;;29.49;37.49
80837;BME280;70251;60.008;30.404;2023-08-12T11:30:23;101383.13;;;29.56;37.33
80837;BME280;70251;60.008;30.404;2023-08-12T11:32:51;101372.59;;;29.92;36.99
80837;BME280;70251;60.008;30.404;2023-08-12T11:35:18;101374.44;;;30.15;36.98
80837;BME280;70251;60.008;30.404;2023-08-12T11:37:46;101376.25;;;30.26;37.11
80837;BME280;70251;60.008;30.404;2023-08-12T11:40:13;101365.19;;;30.21;37.12
80837;BME280;70251;60.008;30.404;2023-08-12T11:42:41;101372.22;;;30.45;37.18
80837;BME280;70251;60.008;30.404;2023-08-12T11:45:08;101363.41;;;30.77;36.85
80837;BME280;70251;60.008;30.404;2023-08-12T11:47:35;101382.25;;;30.85;36.56
80837;BME280;70251;60.008;30.404;2023-08-12T11:50:02;101374.94;;;30.57;36.62
80837;BME280;70251;60.008;30.404;2023-08-12T11:52:31;101374.13;;;30.28;36.81
80837;BME280;70251;60.008;30.404;2023-08-12T11:54:57;101374.44;;;30.15;37.24
80837;BME280;70251;60.008;30.404;2023-08-12T11:57:23;101373.72;;;29.92;36.87
80837;BME280;70251;60.008;30.404;2023-08-12T11:59:50;101374.00;;;29.78;37.37
80837;BME280;70251;60.008;30.404;2023-08-12T12:02:15;101376.75;;;29.78;37.19
80837;BME280;70251;60.008;30.404;2023-08-12T12:04:42;101376.75;;;29.78;37.41
80837;BME280;70251;60.008;30.404;2023-08-12T12:07:19;101378.69;;;29.66;37.75
80837;BME280;70251;60.008;30.404;2023-08-12T12:09:45;101377.63;;;29.56;38.14
80837;BME280;70251;60.008;30.404;2023-08-12T12:12:10;101376.06;;;29.48;38.13
80837;BME280;70251;60.008;30.404;2023-08-12T12:14:36;101363.31;;;29.31;38.53
80837;BME280;70251;60.008;30.404;2023-08-12T12:17:07;101374.09;;;29.21;38.85
80837;BME280;70251;60.008;30.404;2023-08-12T12:19:34;101381.50;;;29.08;39.17
80837;BME280;70251;60.008;30.404;2023-08-12T12:22:02;101371.69;;;29.01;39.15
80837;BME280;70251;60.008;30.404;2023-08-12T12:24:29;101386.63;;;29.05;39.08
80837;BME280;70251;60.008;30.404;2023-08-12T12:27:00;101380.91;;;29.06;39.02
80837;BME280;70251;60.008;30.404;2023-08-12T12:29:26;101377.69;;;28.98;39.15
80837;BME280;70251;60.008;30.404;2023-08-12T12:31:51;101373.00;;;28.87;39.41
80837;BME280;70251;60.008;30.404;2023-08-12T12:34:17;101373.38;;;28.79;39.32
80837;BME280;70251;60.008;30.404;2023-08-12T12:36:43;101377.19;;;28.78;39.65
80837;BME280;70251;60.008;30.404;2023-08-12T12:39:09;101377.19;;;28.78;40.19
80837;BME280;70251;60.008;30.404;2023-08-12T12:41:35;101379.06;;;28.77;39.58